Oaxaca, Mexico

8:13 AM CST on February 10, 2016 (GMT -0600)
Xoxocotlan International | | Change Station
CLOSE
Current Station
Airport
Location: Oaxaca,
Elevation: 5013 ft
Nearby Weather Stations

Elev 5013 ft 16.97 °N, 96.73 °W | Updated 31 minutes ago

Mostly Cloudy
Mostly Cloudy
46 °F
Feels Like 45 °F
N
4
Wind Variable Wind from East

Today
High -- | Low -- °F
--% Chance of Precip.
Yesterday
High -- | Low -- °F
Precip. -- in
Pressure 30.43 in
Visibility 10.0 miles
Clouds Mostly Cloudy 8000 ft
Windchill 45 °F
Dew Point 37 °F
Humidity 71%
Rainfall 0.00 in
Snow Depth Not available.
6:55 AM 6:26 PM
Waxing Crescent, 5% visible
METAR MMOX 101342Z 08003KT 10SM BKN080 08/03 A3043 RMK 8/030 PRESRR ISOL CU
Pressure 30.43 in
Visibility 10.0 miles
Clouds Mostly Cloudy 8000 ft
Windchill 45 °F
Dew Point 37 °F
Humidity 71%
Rainfall 0.00 in
Snow Depth Not available.
6:55 AM 6:26 PM
Waxing Crescent, 5% visible
METAR MMOX 101342Z 08003KT 10SM BKN080 08/03 A3043 RMK 8/030 PRESRR ISOL CU

10-Day Weather Forecast

No radar image for this location.
×

Almanac

Astronomy

Feb. 10, 2016 Rise Set
Actual Time
Civil Twilight
Nautical Twilight
Astronomical Twilight
Moon
Length of Visible Light
Length of Day
Tomorrow will be .
, % of the Moon is Illuminated

Today's Extremes

Country Highs Country Lows

Community

WunderPhotos

Upload Photos

1,891,850 photos uploaded!

WunderBlog® & News

Nearby

Air Quality

  Air Quality AQ Index Pollutant
Not available.

Snow Depth

Station Depth Elevation

Earthquake Activity

City Distance Mag. Time & Date
Minimum magnitude displayed is 2.5.

Coastal Water Temperatures

Place Temperature

Stations

Nearby Weather Stations

Station Location Temp. Windchill Dew Point Humidity Wind Precip. Elev Updated Type